Time;durP1;ratioP1;P1;durP2;ratioP2;P2;SDS_P1;SDS_P2;PMS_P1;PMS_P2;Temp;Humidity;BMP_temperature;BMP_pressure;BME280_temperature;BME280_humidity;BME280_pressure;Samples;Min_cycle;Max_cycle;Signal;HPM_P1;HPM_P2
2021/06/12 00:00:25;;;;;;;7.30;6.00;;;;;;;12.42;77.43;100333.25;102346;1116;74987;-60
2021/06/12 00:02:53;;;;;;;6.20;5.60;;;;;;;12.42;77.35;100342.22;102348;1118;83651;-59
2021/06/12 00:05:03;;;;;;;7.50;5.70;;;;;;;12.41;77.46;100335.13;102345;1117;67760;-59
2021/06/12 00:07:10;;;;;;;7.20;6.00;;;;;;;12.40;77.46;100338.05;102391;1118;69329;-59
2021/06/12 00:09:18;;;;;;;7.10;4.80;;;;;;;12.40;77.55;100333.47;102376;1114;86077;-59
2021/06/12 00:11:28;;;;;;;6.60;5.50;;;;;;;12.42;77.72;100331.38;102379;1117;74714;-61
2021/06/12 00:13:38;;;;;;;6.10;5.20;;;;;;;12.44;77.68;100326.59;102361;1118;81199;-59
2021/06/12 00:15:48;;;;;;;5.80;5.20;;;;;;;12.47;77.81;100319.13;102413;1116;66834;-59
2021/06/12 00:17:56;;;;;;;6.10;5.50;;;;;;;12.50;77.81;100334.97;102380;1118;69133;-58
2021/06/12 00:20:04;;;;;;;7.20;5.60;;;;;;;12.50;77.92;100333.08;102394;1118;84471;-67
2021/06/12 00:22:11;;;;;;;7.00;5.40;;;;;;;12.49;77.91;100333.30;102438;1114;74021;-68
2021/06/12 00:24:18;;;;;;;8.00;5.50;;;;;;;12.47;77.95;100327.25;102374;1117;81646;-69
2021/06/12 00:26:25;;;;;;;5.30;4.80;;;;;;;12.46;77.97;100325.56;102398;1117;66937;-67
2021/06/12 00:28:33;;;;;;;6.40;5.50;;;;;;;12.47;77.88;100324.54;102387;1116;68673;-68
2021/06/12 00:30:40;;;;;;;6.90;5.20;;;;;;;12.46;77.84;100323.70;102377;1116;85117;-60
2021/06/12 00:32:47;;;;;;;6.40;5.80;;;;;;;12.43;78.01;100318.68;102404;1116;75008;-59
2021/06/12 00:34:57;;;;;;;7.80;5.40;;;;;;;12.41;77.80;100318.05;102405;1118;80156;-60
2021/06/12 00:37:05;;;;;;;6.30;5.40;;;;;;;12.41;77.76;100320.77;102380;1116;66979;-60
2021/06/12 00:39:12;;;;;;;8.50;6.70;;;;;;;12.40;77.93;100306.38;102422;1116;69245;-58
2021/06/12 00:41:21;;;;;;;8.80;6.80;;;;;;;12.38;78.03;100313.88;102409;1116;84850;-67
2021/06/12 00:43:28;;;;;;;8.00;7.10;;;;;;;12.38;77.99;100310.33;102400;1116;74739;-66
2021/06/12 00:45:36;;;;;;;9.90;8.40;;;;;;;12.39;78.20;100304.70;102356;1117;80252;-67
2021/06/12 00:47:43;;;;;;;8.80;7.90;;;;;;;12.41;78.12;100310.73;102365;1117;68617;-67
2021/06/12 00:49:50;;;;;;;9.00;7.60;;;;;;;12.44;78.12;100306.81;102361;1117;67522;-58
2021/06/12 00:51:57;;;;;;;7.80;7.10;;;;;;;12.42;78.25;100308.88;102387;1116;85890;-58
2021/06/12 00:54:05;;;;;;;7.30;6.50;;;;;;;12.36;78.34;100299.68;102394;1117;74696;-60
2021/06/12 00:56:15;;;;;;;8.80;7.30;;;;;;;12.34;78.15;100304.48;102352;1116;81684;-60
2021/06/12 00:58:25;;;;;;;7.60;6.90;;;;;;;12.32;78.02;100293.02;102367;1116;68127;-60
2021/06/12 01:00:32;;;;;;;8.20;6.80;;;;;;;12.29;78.25;100282.59;102400;1116;69351;-58
2021/06/12 01:02:40;;;;;;;8.30;7.30;;;;;;;12.29;78.25;100290.71;102375;1116;86064;-59
2021/06/12 01:04:50;;;;;;;8.70;7.80;;;;;;;12.31;78.30;100293.20;102396;1116;75161;-67
2021/06/12 01:06:57;;;;;;;8.80;7.10;;;;;;;12.30;78.39;100286.98;102377;1115;81512;-66
2021/06/12 01:09:05;;;;;;;9.30;8.00;;;;;;;12.30;78.52;100291.55;102355;1117;69274;-66
2021/06/12 01:11:16;;;;;;;9.60;7.70;;;;;;;12.28;78.54;100285.48;102412;1118;69087;-62
2021/06/12 01:13:36;;;;;;;9.00;7.90;;;;;;;12.25;78.73;100294.04;102369;1117;85660;-60
2021/06/12 01:15:52;;;;;;;9.80;7.40;;;;;;;12.22;78.60;100287.13;102412;1116;73373;-59
2021/06/12 01:18:04;;;;;;;9.00;7.60;;;;;;;12.26;78.69;100284.86;102383;1117;80382;-58
2021/06/12 01:20:38;;;;;;;8.90;8.00;;;;;;;12.23;78.64;100291.52;102358;1117;68431;-58
2021/06/12 01:23:18;;;;;;;7.30;6.50;;;;;;;12.18;78.66;100285.88;102396;1118;68448;-60
2021/06/12 01:25:49;;;;;;;8.70;7.80;;;;;;;12.18;78.63;100304.83;102370;1116;84781;-66
2021/06/12 01:28:21;;;;;;;9.60;8.20;;;;;;;12.13;78.67;100295.64;102393;1116;73602;-67
2021/06/12 01:30:31;;;;;;;13.50;11.30;;;;;;;12.12;78.53;100297.52;102390;1116;80916;-65
2021/06/12 01:32:43;;;;;;;12.10;10.80;;;;;;;12.10;78.59;100298.75;102393;1115;67956;-67
2021/06/12 01:34:52;;;;;;;13.50;12.10;;;;;;;12.06;78.69;100300.20;102402;1117;68168;-59
2021/06/12 01:37:01;;;;;;;13.60;11.50;;;;;;;12.05;78.63;100293.95;102380;1117;86270;-58
2021/06/12 01:39:09;;;;;;;13.00;11.70;;;;;;;12.02;78.79;100294.35;102386;1117;74219;-60
2021/06/12 01:41:20;;;;;;;13.70;10.90;;;;;;;11.96;78.73;100297.86;102362;1116;81132;-59
2021/06/12 01:43:29;;;;;;;11.40;10.10;;;;;;;11.97;78.69;100298.70;102377;1116;67831;-60
2021/06/12 01:45:39;;;;;;;12.20;9.90;;;;;;;11.97;78.84;100299.53;102419;1116;68414;-60
2021/06/12 01:47:48;;;;;;;12.80;9.90;;;;;;;11.95;78.84;100288.05;102397;1116;85933;-60
2021/06/12 01:49:56;;;;;;;11.20;10.00;;;;;;;11.96;78.60;100287.02;102399;1117;75153;-66
2021/06/12 01:52:05;;;;;;;11.80;9.90;;;;;;;11.94;78.60;100293.68;102387;1116;79783;-68
2021/06/12 01:54:19;;;;;;;11.50;9.50;;;;;;;11.92;78.79;100288.45;102405;1118;66737;-67
2021/06/12 01:56:30;;;;;;;10.40;9.10;;;;;;;11.89;78.80;100294.29;102380;1116;69561;-65
2021/06/12 01:58:39;;;;;;;10.70;9.50;;;;;;;11.89;78.68;100290.74;102416;1116;86588;-66
2021/06/12 02:00:48;;;;;;;12.80;9.30;;;;;;;11.90;78.69;100290.53;102364;1116;75145;-61
2021/06/12 02:02:58;;;;;;;10.20;9.10;;;;;;;11.89;78.70;100288.88;102377;1116;81159;-60
2021/06/12 02:05:08;;;;;;;10.60;9.10;;;;;;;11.89;78.82;100288.88;102381;1116;68723;-66
2021/06/12 02:07:16;;;;;;;9.80;8.80;;;;;;;11.86;78.79;100286.57;102407;1117;69367;-67
2021/06/12 02:09:23;;;;;;;9.70;8.70;;;;;;;11.85;78.89;100284.88;102388;1117;86406;-66
2021/06/12 02:11:34;;;;;;;9.80;7.70;;;;;;;11.86;78.82;100288.44;102366;1117;74739;-60
2021/06/12 02:13:42;;;;;;;8.90;8.00;;;;;;;11.83;79.00;100289.67;102361;1118;80081;-60
2021/06/12 02:15:57;;;;;;;8.50;7.70;;;;;;;11.83;78.72;100292.38;102370;1116;67958;-68
2021/06/12 02:18:07;;;;;;;9.60;7.80;;;;;;;11.82;78.72;100291.53;102389;1116;68952;-67
2021/06/12 02:20:16;;;;;;;10.20;7.90;;;;;;;11.81;78.67;100289.86;102344;1118;85951;-59
2021/06/12 02:22:23;;;;;;;10.00;8.00;;;;;;;11.86;78.67;100294.69;102406;1116;74542;-59
2021/06/12 02:24:32;;;;;;;10.10;8.70;;;;;;;11.83;79.00;100298.63;102392;1118;80132;-60
2021/06/12 02:26:47;;;;;;;9.20;8.20;;;;;;;11.84;78.94;100291.33;102393;1118;68257;-59
2021/06/12 02:28:57;;;;;;;9.00;8.10;;;;;;;11.85;79.04;100293.00;102346;1118;70277;-59
2021/06/12 02:31:10;;;;;;;10.70;8.20;;;;;;;11.89;78.77;100294.29;102390;1116;85921;-60
2021/06/12 02:33:22;;;;;;;10.30;8.90;;;;;;;11.90;79.04;100297.81;102368;1116;74890;-59
2021/06/12 02:35:29;;;;;;;8.80;7.60;;;;;;;11.94;79.03;100299.94;102407;1116;83212;-68
2021/06/12 02:37:38;;;;;;;9.00;8.00;;;;;;;12.01;79.17;100297.24;102375;1116;68734;-68
2021/06/12 02:39:48;;;;;;;11.00;8.50;;;;;;;12.10;79.31;100294.17;102380;1116;69679;-60
2021/06/12 02:41:56;;;;;;;8.60;7.70;;;;;;;12.15;79.35;100288.98;102392;1116;85042;-58
2021/06/12 02:44:03;;;;;;;9.40;7.80;;;;;;;12.26;79.39;100285.70;102394;1116;75042;-61
2021/06/12 02:46:16;;;;;;;11.90;9.20;;;;;;;12.32;79.58;100284.05;102394;1116;82572;-58
2021/06/12 02:48:28;;;;;;;8.60;7.60;;;;;;;12.43;79.65;100281.59;102373;1116;66793;-60
2021/06/12 02:50:38;;;;;;;9.30;8.30;;;;;;;12.57;79.61;100287.04;102372;1116;69443;-68
2021/06/12 02:52:50;;;;;;;9.40;8.00;;;;;;;12.66;79.65;100274.98;102375;1116;85869;-66
2021/06/12 02:55:00;;;;;;;9.10;8.20;;;;;;;12.79;79.75;100269.57;102380;1116;75115;-58
2021/06/12 02:57:11;;;;;;;9.20;8.30;;;;;;;12.86;79.70;100263.11;102373;1116;80534;-61
2021/06/12 02:59:20;;;;;;;9.10;8.20;;;;;;;12.96;79.66;100266.23;102388;1116;68346;-60
2021/06/12 03:01:29;;;;;;;8.80;7.70;;;;;;;13.03;79.81;100268.95;102432;1116;68949;-68
2021/06/12 03:03:37;;;;;;;9.80;8.60;;;;;;;13.09;79.78;100268.16;102399;1116;85387;-66
2021/06/12 03:05:50;;;;;;;9.50;8.50;;;;;;;13.13;79.55;100263.97;102397;1116;74161;-66
2021/06/12 03:07:59;;;;;;;9.60;8.30;;;;;;;13.17;79.48;100259.81;102384;1118;81184;-66
2021/06/12 03:10:10;;;;;;;11.50;8.10;;;;;;;13.25;79.58;100267.73;102412;1116;66856;-66
2021/06/12 03:12:20;;;;;;;9.60;7.60;;;;;;;13.33;79.75;100259.38;102415;1116;69014;-66
2021/06/12 03:14:30;;;;;;;9.10;7.20;;;;;;;13.41;79.80;100255.60;102377;1116;85810;-68
2021/06/12 03:16:43;;;;;;;9.60;7.40;;;;;;;13.48;79.66;100264.59;102395;1118;74581;-67
2021/06/12 03:18:51;;;;;;;8.40;7.40;;;;;;;13.62;79.67;100260.80;102387;1118;79894;-67
2021/06/12 03:21:00;;;;;;;8.20;7.00;;;;;;;13.74;79.75;100258.24;102423;1116;68706;-67
2021/06/12 03:23:09;;;;;;;9.80;7.30;;;;;;;13.89;79.79;100266.98;102433;1116;68523;-66
2021/06/12 03:25:23;;;;;;;9.00;6.70;;;;;;;14.24;79.90;100262.03;102403;1116;85895;-59
2021/06/12 03:27:31;;;;;;;11.10;7.50;;;;;;;14.89;79.41;100258.13;102416;1116;75300;-60
2021/06/12 03:29:40;;;;;;;7.90;7.20;;;;;;;15.86;78.86;100260.98;102398;1116;81292;-58
2021/06/12 03:31:47;;;;;;;10.30;8.40;;;;;;;16.87;78.06;100256.50;102375;1117;68210;-58
2021/06/12 03:33:57;;;;;;;8.70;7.80;;;;;;;17.82;76.94;100243.52;102397;1116;67342;-61
2021/06/12 03:36:07;;;;;;;8.60;7.50;;;;;;;18.71;75.84;100253.81;102378;1118;84597;-67
2021/06/12 03:38:15;;;;;;;9.50;7.70;;;;;;;19.58;74.58;100248.73;102400;1116;74658;-66
2021/06/12 03:40:22;;;;;;;11.40;8.60;;;;;;;19.57;72.88;100247.06;102402;1118;80014;-61
2021/06/12 03:42:30;;;;;;;13.70;11.30;;;;;;;18.87;72.31;100249.44;102384;1118;66151;-59
2021/06/12 03:44:39;;;;;;;14.60;11.30;;;;;;;18.26;72.39;100248.29;102396;1116;69549;-60
2021/06/12 03:46:51;;;;;;;13.80;12.00;;;;;;;17.93;72.69;100245.41;102398;1116;85835;-66
2021/06/12 03:48:59;;;;;;;14.00;11.80;;;;;;;17.73;72.85;100252.31;102418;1116;74493;-66
2021/06/12 03:51:09;;;;;;;13.40;12.00;;;;;;;18.69;73.40;100249.67;102410;1116;79991;-59
2021/06/12 03:53:17;;;;;;;15.70;11.20;;;;;;;20.04;72.54;100247.45;102393;1116;65931;-58
2021/06/12 03:55:25;;;;;;;12.40;10.20;;;;;;;20.62;70.65;100243.20;102444;1117;69222;-67
2021/06/12 03:57:32;;;;;;;10.10;9.00;;;;;;;21.31;70.23;100247.73;102392;1116;86140;-68
2021/06/12 03:59:44;;;;;;;8.40;7.50;;;;;;;22.39;69.03;100237.87;102405;1116;74461;-67
2021/06/12 04:01:56;;;;;;;9.00;8.00;;;;;;;23.36;67.58;100237.75;102411;1116;81014;-68
2021/06/12 04:04:03;;;;;;;7.70;6.80;;;;;;;24.07;65.54;100238.44;102378;1116;66091;-68
2021/06/12 04:06:12;;;;;;;7.90;6.20;;;;;;;24.81;63.48;100247.77;102439;1116;68306;-59
2021/06/12 04:08:19;;;;;;;7.50;6.70;;;;;;;25.48;62.12;100244.22;102366;1116;86229;-60
2021/06/12 04:10:26;;;;;;;6.70;5.90;;;;;;;26.17;60.20;100236.30;102395;1116;73958;-60
2021/06/12 04:12:37;;;;;;;7.60;6.90;;;;;;;26.76;58.67;100235.73;102381;1116;80470;-58
2021/06/12 04:14:44;;;;;;;7.70;6.30;;;;;;;27.27;57.39;100249.67;102416;1117;67035;-58
2021/06/12 04:16:52;;;;;;;7.10;6.00;;;;;;;26.59;56.08;100242.95;102393;1116;68711;-60
2021/06/12 04:18:59;;;;;;;8.30;7.10;;;;;;;25.87;55.74;100236.63;102373;1116;85563;-58
2021/06/12 04:21:07;;;;;;;8.70;6.60;;;;;;;24.94;55.91;100238.85;102406;1116;74602;-61
2021/06/12 04:23:18;;;;;;;7.80;7.00;;;;;;;24.18;56.32;100230.96;102391;1116;81807;-59
2021/06/12 04:25:26;;;;;;;8.20;6.50;;;;;;;23.56;57.03;100236.93;102382;1116;65608;-59
2021/06/12 04:27:33;;;;;;;8.00;7.30;;;;;;;23.64;56.96;100236.36;102402;1116;69416;-60
2021/06/12 04:29:44;;;;;;;8.20;7.00;;;;;;;24.45;56.84;100233.31;102390;1116;87196;-64
2021/06/12 04:31:51;;;;;;;7.10;6.40;;;;;;;24.08;55.95;100231.81;102398;1116;73389;-68
2021/06/12 04:33:59;;;;;;;8.10;7.30;;;;;;;23.89;56.48;100233.55;102406;1118;79883;-69
2021/06/12 04:36:08;;;;;;;8.60;6.70;;;;;;;23.85;56.13;100231.61;102392;1116;65682;-60
2021/06/12 04:38:15;;;;;;;9.30;7.00;;;;;;;23.38;56.58;100226.46;102434;1116;68582;-60
2021/06/12 04:40:22;;;;;;;7.30;6.50;;;;;;;23.73;56.95;100234.70;102418;1116;84303;-69
2021/06/12 04:42:30;;;;;;;7.10;6.20;;;;;;;24.89;56.77;100231.41;102392;1116;73395;-67
2021/06/12 04:44:37;;;;;;;8.10;7.30;;;;;;;26.09;54.98;100225.84;102382;1116;81738;-69
2021/06/12 04:46:47;;;;;;;8.40;7.00;;;;;;;27.19;53.50;100222.63;102426;1115;66701;-68
2021/06/12 04:48:55;;;;;;;7.70;7.00;;;;;;;28.12;51.80;100215.92;102402;1116;69462;-69
2021/06/12 04:51:02;;;;;;;8.00;7.20;;;;;;;28.36;49.49;100216.50;102439;1116;84282;-68
2021/06/12 04:53:11;;;;;;;7.50;6.80;;;;;;;28.64;49.20;100228.41;102411;1116;74769;-68
2021/06/12 04:55:19;;;;;;;7.50;6.80;;;;;;;28.93;48.76;100226.05;102419;1116;79876;-68
2021/06/12 04:57:26;;;;;;;8.60;7.70;;;;;;;29.30;48.05;100230.45;102392;1116;65068;-69
2021/06/12 04:59:33;;;;;;;8.60;7.30;;;;;;;29.79;47.42;100232.20;102407;1116;68538;-68
2021/06/12 05:01:44;;;;;;;7.90;7.00;;;;;;;30.15;45.91;100229.25;102397;1116;86064;-68
2021/06/12 05:03:51;;;;;;;7.60;6.90;;;;;;;30.60;45.37;100218.73;102390;1116;76001;-68
2021/06/12 05:05:58;;;;;;;8.90;7.40;;;;;;;31.05;43.33;100224.83;102406;1116;81061;-60
2021/06/12 05:08:06;;;;;;;7.70;6.80;;;;;;;30.93;42.98;100217.94;102382;1116;65186;-58
2021/06/12 05:10:14;;;;;;;8.80;7.30;;;;;;;31.41;42.19;100211.31;102415;1116;67886;-60
2021/06/12 05:12:21;;;;;;;8.90;7.30;;;;;;;31.60;42.19;100213.74;102391;1116;86282;-60
2021/06/12 05:14:31;;;;;;;7.90;7.20;;;;;;;31.75;41.56;100211.25;102402;1116;75303;-59
2021/06/12 05:16:39;;;;;;;7.60;6.80;;;;;;;31.75;40.84;100205.66;102393;1116;79880;-59
2021/06/12 05:18:46;;;;;;;8.70;7.10;;;;;;;31.87;40.34;100207.72;102412;1116;67173;-60
2021/06/12 05:20:53;;;;;;;7.40;6.60;;;;;;;31.86;40.39;100208.90;102378;1116;68656;-69
2021/06/12 05:23:01;;;;;;;17.20;15.40;;;;;;;32.22;40.07;100203.66;102371;1115;87028;-70
2021/06/12 05:25:11;;;;;;;9.30;8.50;;;;;;;32.70;39.40;100200.37;102388;1116;73716;-68
2021/06/12 05:27:18;;;;;;;9.90;8.80;;;;;;;33.07;39.38;100201.41;102412;1116;81624;-70
2021/06/12 05:29:26;;;;;;;7.70;7.00;;;;;;;33.46;39.09;100202.82;102392;1116;68125;-69
2021/06/12 05:31:34;;;;;;;7.10;6.40;;;;;;;34.15;37.64;100200.83;102436;1116;68790;-59
2021/06/12 05:33:41;;;;;;;7.50;6.30;;;;;;;34.31;37.11;100203.76;102377;1116;85673;-58
2021/06/12 05:35:51;;;;;;;7.00;6.00;;;;;;;34.07;36.50;100206.52;102435;1116;74208;-58
2021/06/12 05:38:03;;;;;;;10.20;6.30;;;;;;;33.53;36.53;100205.86;102408;1115;81110;-61
2021/06/12 05:40:15;;;;;;;10.10;6.80;;;;;;;32.67;36.12;100203.84;102426;1116;65495;-67
2021/06/12 05:42:25;;;;;;;7.60;6.30;;;;;;;32.32;37.86;100199.63;102436;1116;68040;-67
2021/06/12 05:44:32;;;;;;;6.90;5.90;;;;;;;32.74;37.29;100192.95;102402;1116;85922;-69
2021/06/12 05:46:42;;;;;;;6.20;5.40;;;;;;;33.63;37.00;100202.63;102397;1116;76018;-54
2021/06/12 05:48:49;;;;;;;6.00;5.40;;;;;;;33.89;35.64;100196.72;102383;1116;81337;-54
2021/06/12 05:50:56;;;;;;;6.20;5.70;;;;;;;33.11;36.40;100199.54;102415;1116;66280;-57
2021/06/12 05:53:03;;;;;;;6.60;5.90;;;;;;;31.68;37.63;100204.52;102392;1116;68015;-56
2021/06/12 05:55:14;;;;;;;8.50;6.10;;;;;;;31.17;38.43;100195.11;102406;1116;84762;-56
2021/06/12 05:57:21;;;;;;;6.60;6.00;;;;;;;31.89;38.25;100186.67;102425;1116;74748;-57
2021/06/12 05:59:28;;;;;;;6.80;6.10;;;;;;;33.07;37.11;100187.41;102365;1116;80964;-56
2021/06/12 06:01:36;;;;;;;6.60;5.60;;;;;;;33.42;36.06;100187.86;102382;1116;66331;-54
2021/06/12 06:03:43;;;;;;;6.40;5.30;;;;;;;33.63;35.69;100185.81;102402;1116;68353;-53
2021/06/12 06:05:50;;;;;;;7.80;7.00;;;;;;;33.25;35.41;100186.06;102368;1116;85948;-57
2021/06/12 06:07:57;;;;;;;6.60;6.00;;;;;;;32.25;36.54;100183.38;102423;1116;73680;-56
2021/06/12 06:10:06;;;;;;;6.60;5.90;;;;;;;32.65;37.14;100183.80;102348;1118;81523;-54
2021/06/12 06:12:15;;;;;;;8.00;6.30;;;;;;;33.10;36.44;100187.52;102397;1116;66278;-54
2021/06/12 06:14:22;;;;;;;7.90;6.10;;;;;;;33.57;36.05;100182.42;102412;1116;68260;-55
2021/06/12 06:16:29;;;;;;;11.30;6.70;;;;;;;33.68;35.31;100178.00;102407;1118;86340;-56
2021/06/12 06:18:37;;;;;;;9.60;5.50;;;;;;;34.05;35.93;100187.26;102387;1116;74941;-54
2021/06/12 06:20:47;;;;;;;7.60;5.70;;;;;;;34.58;34.41;100179.77;102362;1116;81540;-57
2021/06/12 06:22:58;;;;;;;10.20;6.70;;;;;;;34.70;33.57;100183.34;102374;1114;66110;-57
2021/06/12 06:25:07;;;;;;;6.90;6.20;;;;;;;34.64;32.63;100167.92;102391;1115;67382;-55
2021/06/12 06:27:17;;;;;;;6.20;5.60;;;;;;;33.62;34.45;100181.40;102397;1115;85763;-55
2021/06/12 06:29:27;;;;;;;5.70;5.20;;;;;;;34.47;34.23;100172.98;102385;1116;74530;-54
2021/06/12 06:31:37;;;;;;;7.20;5.10;;;;;;;35.24;33.76;100178.13;102361;1116;81430;-55
2021/06/12 06:33:47;;;;;;;6.30;5.50;;;;;;;36.05;32.06;100176.66;102400;1116;67427;-58
2021/06/12 06:35:58;;;;;;;5.80;4.60;;;;;;;35.71;31.77;100180.20;102397;1116;69340;-53
2021/06/12 06:38:05;;;;;;;5.10;4.60;;;;;;;35.38;32.53;100181.30;102401;1116;84740;-54
2021/06/12 06:40:15;;;;;;;5.10;4.60;;;;;;;36.04;31.72;100177.86;102411;1116;75860;-57
2021/06/12 06:42:23;;;;;;;5.40;4.50;;;;;;;35.14;32.77;100183.42;102404;1116;81302;-54
2021/06/12 06:44:32;;;;;;;6.40;4.70;;;;;;;35.64;32.07;100180.00;102385;1117;65046;-54
2021/06/12 06:46:41;;;;;;;5.60;5.00;;;;;;;36.53;31.48;100184.67;102417;1116;68824;-56
2021/06/12 06:48:48;;;;;;;7.10;4.40;;;;;;;36.72;30.84;100177.42;102376;1118;85429;-54
2021/06/12 06:50:56;;;;;;;5.60;5.00;;;;;;;36.41;30.56;100183.94;102403;1116;76389;-58
2021/06/12 06:53:04;;;;;;;5.10;4.10;;;;;;;36.38;30.42;100177.05;102397;1118;81033;-57
2021/06/12 06:55:13;;;;;;;4.30;3.70;;;;;;;36.15;30.46;100173.31;102397;1116;65338;-55
2021/06/12 06:57:20;;;;;;;4.90;4.10;;;;;;;36.27;31.01;100181.61;102437;1116;69147;-55
2021/06/12 06:59:27;;;;;;;4.00;3.30;;;;;;;36.27;30.38;100175.16;102372;1116;85361;-54
2021/06/12 07:01:37;;;;;;;4.00;3.40;;;;;;;36.52;30.12;100171.77;102436;1116;74486;-55
2021/06/12 07:03:44;;;;;;;4.80;3.40;;;;;;;35.81;30.95;100168.41;102411;1116;81559;-57
2021/06/12 07:05:56;;;;;;;4.10;3.30;;;;;;;36.01;31.17;100164.49;102395;1116;67408;-60
2021/06/12 07:08:04;;;;;;;4.00;3.50;;;;;;;36.51;30.19;100167.31;102414;1117;67668;-57
2021/06/12 07:10:13;;;;;;;4.10;3.10;;;;;;;37.00;30.23;100163.97;102420;1116;84786;-56
2021/06/12 07:12:20;;;;;;;5.40;3.70;;;;;;;37.31;30.14;100172.20;102408;1116;73878;-54
2021/06/12 07:14:27;;;;;;;5.00;3.20;;;;;;;37.34;29.67;100156.55;102372;1116;80125;-55
2021/06/12 07:16:34;;;;;;;5.30;3.40;;;;;;;37.54;29.37;100156.17;102369;1116;66712;-56
2021/06/12 07:18:41;;;;;;;3.80;3.50;;;;;;;36.38;29.66;100143.28;102387;1116;68894;-56
2021/06/12 07:20:50;;;;;;;3.70;3.40;;;;;;;36.05;30.12;100142.91;102402;1116;85732;-57
2021/06/12 07:22:59;;;;;;;4.60;3.30;;;;;;;36.75;29.45;100145.71;102403;1117;74971;-57
2021/06/12 07:25:08;;;;;;;4.00;3.20;;;;;;;37.43;29.03;100146.70;102384;1118;81408;-58
2021/06/12 07:27:16;;;;;;;3.30;2.90;;;;;;;37.71;28.43;100144.39;102416;1116;65353;-59
2021/06/12 07:29:23;;;;;;;4.10;2.90;;;;;;;38.13;28.04;100147.08;102399;1116;69421;-57
2021/06/12 07:31:32;;;;;;;3.40;3.00;;;;;;;38.21;28.05;100133.91;102416;1117;86031;-56
2021/06/12 07:33:39;;;;;;;4.60;3.50;;;;;;;38.50;28.29;100130.31;102383;1116;74143;-58
2021/06/12 07:35:46;;;;;;;4.30;3.10;;;;;;;38.62;28.25;100127.25;102384;1117;79944;-57
2021/06/12 07:37:53;;;;;;;3.80;3.10;;;;;;;37.86;28.01;100130.49;102395;1116;67711;-58
2021/06/12 07:40:00;;;;;;;6.50;3.60;;;;;;;37.31;27.90;100135.57;102383;1117;67993;-57
2021/06/12 07:42:11;;;;;;;3.70;3.20;;;;;;;35.55;28.41;100138.02;102399;1115;85433;-56
2021/06/12 07:44:18;;;;;;;3.80;3.20;;;;;;;34.29;30.46;100130.34;102392;1116;74935;-58
2021/06/12 07:46:25;;;;;;;3.90;3.50;;;;;;;33.51;31.12;100132.55;102398;1116;81205;-56
2021/06/12 07:48:33;;;;;;;5.20;3.40;;;;;;;32.67;32.58;100131.92;102421;1116;65796;-56
2021/06/12 07:50:43;;;;;;;4.30;3.20;;;;;;;33.05;33.23;100133.69;102416;1118;69070;-58
2021/06/12 07:52:50;;;;;;;3.70;3.40;;;;;;;33.31;33.33;100133.45;102382;1116;86265;-57
2021/06/12 07:54:57;;;;;;;3.40;3.10;;;;;;;34.17;33.03;100119.95;102378;1116;75278;-56
2021/06/12 07:57:09;;;;;;;4.70;3.10;;;;;;;34.36;32.39;100120.14;102395;1115;79892;-58
2021/06/12 07:59:16;;;;;;;4.50;3.40;;;;;;;33.68;32.07;100121.13;102417;1116;66228;-56
2021/06/12 08:01:24;;;;;;;3.00;2.70;;;;;;;32.89;32.02;100122.33;102388;1116;68964;-57
2021/06/12 08:03:31;;;;;;;3.70;3.00;;;;;;;31.83;32.56;100123.77;102371;1116;84569;-56
2021/06/12 08:05:38;;;;;;;3.50;2.80;;;;;;;30.95;34.37;100120.79;102371;1117;74686;-59
2021/06/12 08:07:48;;;;;;;3.30;2.60;;;;;;;30.34;34.57;100127.48;102384;1116;82411;-60
2021/06/12 08:09:57;;;;;;;3.80;2.70;;;;;;;29.98;35.79;100121.36;102386;1116;67788;-67
2021/06/12 08:12:06;;;;;;;3.80;2.40;;;;;;;29.72;36.32;100114.88;102435;1116;67635;-67
2021/06/12 08:14:13;;;;;;;5.40;2.90;;;;;;;29.60;37.27;100109.92;102416;1116;84593;-67
2021/06/12 08:16:20;;;;;;;3.80;3.00;;;;;;;29.52;37.97;100121.85;102392;1117;75819;-58
2021/06/12 08:18:27;;;;;;;4.80;3.30;;;;;;;30.20;38.43;100112.88;102388;1117;82637;-58
2021/06/12 08:20:35;;;;;;;4.10;3.10;;;;;;;31.52;37.67;100106.50;102349;1115;66675;-60
2021/06/12 08:22:43;;;;;;;4.10;3.60;;;;;;;32.50;36.57;100108.84;102404;1116;68162;-60
2021/06/12 08:24:50;;;;;;;4.90;2.90;;;;;;;33.22;36.03;100109.16;102423;1116;85666;-68
2021/06/12 08:26:57;;;;;;;5.20;3.60;;;;;;;33.79;33.86;100111.09;102403;1116;75667;-69
2021/06/12 08:29:04;;;;;;;4.90;3.60;;;;;;;33.56;33.64;100107.11;102385;1116;80040;-65
2021/06/12 08:31:15;;;;;;;4.40;3.70;;;;;;;33.38;33.69;100102.87;102415;1116;65765;-57
2021/06/12 08:33:22;;;;;;;4.10;3.20;;;;;;;33.27;33.90;100099.70;102397;1116;69031;-57
2021/06/12 08:35:29;;;;;;;4.30;3.60;;;;;;;33.00;33.77;100100.32;102398;1116;84136;-64
2021/06/12 08:37:37;;;;;;;4.10;3.30;;;;;;;32.84;34.52;100096.55;102399;1116;74917;-62
2021/06/12 08:39:44;;;;;;;4.40;3.40;;;;;;;32.72;33.94;100100.11;102422;1116;80618;-60
2021/06/12 08:41:51;;;;;;;4.30;3.20;;;;;;;32.43;33.53;100091.80;102394;1117;67235;-62
2021/06/12 08:44:01;;;;;;;4.30;3.00;;;;;;;31.98;33.72;100098.02;102403;1116;69131;-61
2021/06/12 08:46:10;;;;;;;2.90;2.40;;;;;;;31.45;34.29;100097.80;102415;1117;84713;-60
2021/06/12 08:48:21;;;;;;;5.20;2.70;;;;;;;31.23;34.91;100092.47;102384;1116;74671;-60
2021/06/12 08:50:33;;;;;;;5.90;3.10;;;;;;;31.11;34.63;100092.33;102409;1116;80715;-58
2021/06/12 08:52:42;;;;;;;3.60;3.30;;;;;;;30.90;34.51;100095.80;102396;1116;65527;-60
2021/06/12 08:54:49;;;;;;;4.30;3.20;;;;;;;30.76;35.00;100097.98;102429;1116;68035;-60
2021/06/12 08:56:57;;;;;;;4.20;3.10;;;;;;;30.36;35.06;100085.33;102374;1116;85694;-58
2021/06/12 08:59:04;;;;;;;3.60;3.20;;;;;;;29.95;35.86;100090.53;102401;1116;74165;-60
2021/06/12 09:01:11;;;;;;;3.10;2.90;;;;;;;29.59;36.90;100091.56;102374;1116;80977;-60
2021/06/12 09:03:22;;;;;;;3.80;3.30;;;;;;;29.44;37.18;100085.63;102384;1116;66227;-60
2021/06/12 09:05:42;;;;;;;4.00;3.00;;;;;;;29.14;37.60;100093.66;102403;1116;68766;-58
2021/06/12 09:08:04;;;;;;;4.70;3.90;;;;;;;29.00;37.92;100083.75;102386;1117;86025;-62
2021/06/12 09:10:23;;;;;;;4.50;3.30;;;;;;;29.03;38.05;100089.51;102433;1116;75356;-61
2021/06/12 09:12:47;;;;;;;4.60;3.20;;;;;;;29.15;38.73;100086.11;102386;1116;80065;-61
2021/06/12 09:15:13;;;;;;;4.60;3.10;;;;;;;29.41;38.27;100070.39;102362;1116;65400;-59
2021/06/12 09:17:36;;;;;;;5.10;2.90;;;;;;;29.41;38.44;100070.39;102419;1116;67594;-64
2021/06/12 09:19:44;;;;;;;3.10;2.60;;;;;;;29.32;38.17;100083.44;102368;1116;86755;-60
2021/06/12 09:21:57;;;;;;;4.20;2.70;;;;;;;29.25;38.48;100077.53;102404;1116;75321;-59
2021/06/12 09:24:18;;;;;;;3.80;3.00;;;;;;;29.21;38.48;100076.48;102372;1116;81768;-58
2021/06/12 09:26:44;;;;;;;3.80;2.60;;;;;;;29.10;37.85;100075.12;102425;1115;65219;-60
2021/06/12 09:29:37;;;;;;;3.80;3.00;;;;;;;29.21;38.00;100076.48;102353;1118;68420;-59
2021/06/12 09:47:21;;;;;;;2.90;2.50;;;;;;;29.94;38.28;100056.31;102372;1118;69081;-62
2021/06/12 09:49:36;;;;;;;3.30;2.50;;;;;;;30.08;37.97;100045.02;102359;1118;84687;-60
2021/06/12 09:54:41;;;;;;;3.30;2.60;;;;;;;30.12;38.05;100045.98;100557;1137;243126;-62
2021/06/12 09:57:01;;;;;;;4.60;3.10;;;;;;;30.23;37.39;100038.94;102317;1121;66903;-61
2021/06/12 09:59:21;;;;;;;5.20;2.80;;;;;;;30.39;37.84;100040.92;102308;1121;67750;-63
2021/06/12 14:06:35;;;;;;;10.10;8.20;;;;;;;20.69;67.03;99865.81;102229;1121;82236;-57
2021/06/12 14:08:42;;;;;;;10.50;9.20;;;;;;;20.66;67.25;99858.11;102242;1121;68741;-61
2021/06/12 14:10:49;;;;;;;9.50;8.40;;;;;;;20.67;67.47;99851.54;102258;1121;70254;-61
2021/06/12 14:12:57;;;;;;;10.50;9.10;;;;;;;20.56;67.27;99847.93;102234;1121;84049;-60
2021/06/12 14:15:06;;;;;;;10.20;7.90;;;;;;;20.62;67.66;99842.45;102272;1121;74847;-54
2021/06/12 14:17:14;;;;;;;9.80;8.70;;;;;;;20.62;67.69;99847.95;102268;1121;81498;-57